createdAt,value
2018-07-10T00:00:16.804Z,101372.00
2018-07-10T00:08:44.943Z,101378.00
2018-07-10T00:14:48.236Z,101368.00
2018-07-10T00:20:51.832Z,101359.00
2018-07-10T00:26:55.132Z,101358.00
2018-07-10T00:32:58.783Z,101352.00
2018-07-10T00:39:06.762Z,101350.00
2018-07-10T00:45:10.162Z,101349.00
2018-07-10T00:51:14.330Z,101348.00
2018-07-10T00:57:17.863Z,101360.00
2018-07-10T01:03:22.484Z,101341.00
2018-07-10T01:09:26.154Z,101345.00
2018-07-10T01:15:29.546Z,101343.00
2018-07-10T01:21:32.929Z,101356.00
2018-07-10T01:27:37.569Z,101338.00
2018-07-10T01:33:41.088Z,101322.00
2018-07-10T01:39:44.502Z,101325.00
2018-07-10T01:45:48.452Z,101319.00
2018-07-10T01:51:52.062Z,101309.00
2018-07-10T01:57:56.919Z,101317.00
2018-07-10T02:04:00.967Z,101320.00
2018-07-10T02:10:04.570Z,101321.00
2018-07-10T02:16:08.030Z,101308.00
2018-07-10T02:22:11.538Z,101305.00
2018-07-10T02:28:15.015Z,101307.00
2018-07-10T02:34:18.877Z,101291.00
2018-07-10T02:40:22.368Z,101292.00
2018-07-10T02:46:27.193Z,101292.00
2018-07-10T02:52:39.740Z,101294.00
2018-07-10T02:58:43.435Z,101293.00
2018-07-10T03:04:47.655Z,101282.00
2018-07-10T03:10:51.216Z,101283.00
2018-07-10T03:16:54.618Z,101276.00
2018-07-10T03:22:58.365Z,101282.00
2018-07-10T03:29:02.046Z,101263.00
2018-07-10T03:35:06.246Z,101283.00
2018-07-10T03:41:09.954Z,101280.00
2018-07-10T03:47:17.053Z,101280.00
2018-07-10T03:53:21.488Z,101276.00
2018-07-10T03:59:25.064Z,101275.00
2018-07-10T04:05:28.662Z,101273.00
2018-07-10T04:11:32.939Z,101270.00
2018-07-10T04:17:45.659Z,101284.00
2018-07-10T04:24:08.895Z,101285.00
2018-07-10T04:30:21.305Z,101292.00
2018-07-10T04:36:24.973Z,101271.00
2018-07-10T04:42:31.869Z,101261.00
2018-07-10T04:48:40.987Z,101273.00
2018-07-10T04:55:01.174Z,101274.00
2018-07-10T05:01:04.624Z,101267.00
2018-07-10T05:07:09.935Z,101259.00
2018-07-10T05:13:13.409Z,101249.00
2018-07-10T05:19:16.942Z,101254.00
2018-07-10T05:25:20.622Z,101252.00
2018-07-10T05:31:24.442Z,101244.00
2018-07-10T05:37:34.167Z,101238.00
2018-07-10T05:43:46.498Z,101244.00
2018-07-10T05:49:49.990Z,101233.00
2018-07-10T05:55:53.902Z,101235.00
2018-07-10T06:01:57.618Z,101228.00
2018-07-10T06:08:01.430Z,101225.00
2018-07-10T06:14:04.846Z,101223.00
2018-07-10T06:20:08.480Z,101222.00
2018-07-10T06:26:13.381Z,101215.00
2018-07-10T06:32:21.230Z,101213.00
2018-07-10T06:38:24.715Z,101217.00
2018-07-10T06:44:28.344Z,101198.00
2018-07-10T06:50:33.987Z,101204.00
2018-07-10T06:56:37.892Z,101188.00
2018-07-10T07:02:41.461Z,101192.00
2018-07-10T07:08:45.086Z,101203.00
2018-07-10T07:14:49.019Z,101205.00
2018-07-10T07:20:52.673Z,101204.00
2018-07-10T07:26:56.296Z,101188.00
2018-07-10T07:33:00.412Z,101180.00
2018-07-10T07:39:04.953Z,101191.00
2018-07-10T07:45:08.877Z,101174.00
2018-07-10T07:51:12.499Z,101173.00
2018-07-10T07:57:16.858Z,101178.00
2018-07-10T08:03:21.051Z,101158.00
2018-07-10T08:09:24.844Z,101161.00
2018-07-10T08:15:28.285Z,101157.00
2018-07-10T08:21:32.403Z,101160.00
2018-07-10T08:27:37.518Z,101158.00
2018-07-10T08:33:41.258Z,101153.00
2018-07-10T08:39:45.294Z,101135.00
2018-07-10T08:45:49.582Z,101150.00
2018-07-10T08:51:53.890Z,101148.00
2018-07-10T08:57:57.709Z,101141.00
2018-07-10T09:04:01.524Z,101143.00
2018-07-10T09:10:05.031Z,101133.00
2018-07-10T09:16:08.788Z,101140.00
2018-07-10T09:22:13.100Z,101130.00
2018-07-10T09:28:17.114Z,101123.00
2018-07-10T09:34:20.832Z,101122.00
2018-07-10T09:40:24.631Z,101123.00
2018-07-10T09:46:29.950Z,101101.00
2018-07-10T09:52:33.588Z,101102.00
2018-07-10T09:58:37.551Z,101096.00
2018-07-10T10:04:41.244Z,101090.00
2018-07-10T10:10:45.073Z,101081.00
2018-07-10T10:16:48.608Z,101080.00
2018-07-10T10:22:52.364Z,101061.00
2018-07-10T10:28:56.228Z,101061.00
2018-07-10T10:35:00.262Z,101057.00
2018-07-10T10:41:03.898Z,101063.00
2018-07-10T10:47:08.008Z,101041.00
2018-07-10T10:53:11.798Z,101044.00
2018-07-10T10:59:15.497Z,101036.00
2018-07-10T11:05:19.482Z,101040.00
2018-07-10T11:11:23.073Z,101017.00
2018-07-10T11:17:31.116Z,101017.00
2018-07-10T11:23:53.407Z,100994.00
2018-07-10T11:29:57.590Z,100997.00
2018-07-10T11:36:01.461Z,101000.00
2018-07-10T11:42:05.443Z,101009.00
2018-07-10T11:48:09.690Z,101013.00
2018-07-10T11:54:14.033Z,101012.00
2018-07-10T12:00:18.812Z,101015.00
2018-07-10T12:06:22.591Z,101019.00
2018-07-10T12:12:26.234Z,101017.00
2018-07-10T12:18:29.803Z,101036.00
2018-07-10T12:24:33.408Z,101015.00
2018-07-10T12:30:36.968Z,100997.00
2018-07-10T12:36:40.540Z,100989.00
2018-07-10T12:42:44.068Z,100993.00
2018-07-10T12:48:47.782Z,100971.00
2018-07-10T12:54:51.427Z,100968.00
2018-07-10T13:00:55.673Z,100963.00
2018-07-10T13:06:59.398Z,100942.00
2018-07-10T13:13:03.346Z,100929.00
2018-07-10T13:19:06.928Z,100937.00
2018-07-10T13:25:10.577Z,100925.00
2018-07-10T13:31:13.905Z,100921.00
2018-07-10T13:37:21.934Z,100896.00
2018-07-10T13:43:25.595Z,100909.00
2018-07-10T13:49:29.374Z,100890.00
2018-07-10T13:55:33.127Z,100872.00
2018-07-10T14:01:39.582Z,100866.00
2018-07-10T14:07:43.106Z,100872.00
2018-07-10T14:13:46.790Z,100849.00
2018-07-10T14:19:51.346Z,100844.00
2018-07-10T14:25:55.130Z,100851.00
2018-07-10T14:31:58.884Z,100844.00
2018-07-10T14:38:05.761Z,100845.00
2018-07-10T14:44:11.055Z,100835.00
2018-07-10T14:50:14.703Z,100823.00
2018-07-10T14:56:18.692Z,100819.00
2018-07-10T15:02:22.259Z,100816.00
2018-07-10T15:08:26.156Z,100794.00
2018-07-10T15:14:29.935Z,100778.00
2018-07-10T15:20:33.574Z,100782.00
2018-07-10T15:26:38.178Z,100781.00
2018-07-10T15:32:41.820Z,100781.00
2018-07-10T15:38:46.457Z,100784.00
2018-07-10T15:44:49.950Z,100785.00
2018-07-10T15:50:53.431Z,100766.00
2018-07-10T15:56:57.342Z,100767.00
2018-07-10T16:03:01.260Z,100771.00
2018-07-10T16:09:22.324Z,100742.00
2018-07-10T16:15:26.295Z,100729.00
2018-07-10T16:22:00.925Z,100706.00
2018-07-10T16:28:39.154Z,100691.00
2018-07-10T16:34:46.374Z,100723.00
2018-07-10T16:40:50.367Z,100760.00
2018-07-10T16:47:08.706Z,100769.00
2018-07-10T16:53:14.623Z,100774.00
2018-07-10T16:59:18.199Z,100780.00
2018-07-10T17:05:22.582Z,100777.00
2018-07-10T17:11:26.206Z,100798.00
2018-07-10T17:17:30.016Z,100795.00
2018-07-10T17:23:34.009Z,100796.00
2018-07-10T17:29:37.493Z,100804.00
2018-07-10T17:35:41.066Z,100763.00
2018-07-10T17:41:46.145Z,100805.00
2018-07-10T17:54:01.720Z,100795.00
2018-07-10T18:00:05.970Z,100805.00
2018-07-10T18:06:09.418Z,100814.00
2018-07-10T18:12:13.028Z,100813.00
2018-07-10T18:18:16.470Z,100826.00
2018-07-10T18:24:20.675Z,100829.00
2018-07-10T18:30:24.143Z,100836.00
2018-07-10T18:36:28.225Z,100837.00
2018-07-10T18:42:32.502Z,100850.00
2018-07-10T18:48:36.991Z,100869.00
2018-07-10T18:54:47.805Z,100881.00
2018-07-10T19:01:05.648Z,100871.00
2018-07-10T19:07:09.189Z,100880.00
2018-07-10T19:13:14.910Z,100876.00
2018-07-10T19:19:18.617Z,100886.00
2018-07-10T19:25:23.805Z,100880.00
2018-07-10T19:31:31.668Z,100902.00
2018-07-10T19:37:38.160Z,100918.00
2018-07-10T19:43:41.899Z,100927.00
2018-07-10T19:49:49.333Z,100925.00
2018-07-10T19:55:52.920Z,100935.00
2018-07-10T20:01:58.538Z,100943.00
2018-07-10T20:08:09.636Z,100960.00
2018-07-10T20:14:17.096Z,100957.00
2018-07-10T20:20:24.728Z,100969.00
2018-07-10T20:26:40.704Z,100966.00
2018-07-10T20:33:18.516Z,100977.00
2018-07-10T20:39:34.980Z,100985.00
2018-07-10T20:45:45.876Z,100989.00
2018-07-10T20:52:06.664Z,101002.00
2018-07-10T20:58:15.777Z,101004.00
2018-07-10T21:04:34.809Z,101008.00
2018-07-10T21:10:43.792Z,101016.00
2018-07-10T21:17:04.293Z,101021.00
2018-07-10T21:23:19.511Z,101023.00
2018-07-10T21:29:51.497Z,101012.00
2018-07-10T21:36:04.091Z,101006.00
2018-07-10T21:42:28.715Z,101007.00
2018-07-10T21:51:02.278Z,101008.00
2018-07-10T21:57:06.823Z,101022.00
2018-07-10T22:03:11.406Z,101025.00
2018-07-10T22:09:15.796Z,101030.00
2018-07-10T22:15:20.084Z,101023.00
2018-07-10T22:21:23.615Z,101032.00
2018-07-10T22:27:26.960Z,101046.00
2018-07-10T22:33:30.528Z,101045.00
2018-07-10T22:39:33.969Z,101034.00
2018-07-10T22:45:38.365Z,101037.00
2018-07-10T22:51:41.831Z,101049.00
2018-07-10T22:57:51.030Z,101052.00
2018-07-10T23:03:55.107Z,101050.00
2018-07-10T23:09:58.616Z,101043.00
2018-07-10T23:16:02.252Z,101055.00
2018-07-10T23:22:06.187Z,101058.00
2018-07-10T23:28:10.376Z,101053.00
2018-07-10T23:34:17.391Z,101039.00
2018-07-10T23:40:22.337Z,101039.00
2018-07-10T23:46:40.179Z,101041.00
2018-07-10T23:52:57.161Z,101038.00
2018-07-10T23:59:00.614Z,101044.00
